sensor_id;sensor_type;location;lat;lon;timestamp;P1;durP1;ratioP1;P2;durP2;ratioP2
4963;SDS011;2497;47.410;9.740;2024-02-16T00:02:26;3.53;;;1.50;;
4963;SDS011;2497;47.410;9.740;2024-02-16T00:04:53;1.33;;;1.10;;
4963;SDS011;2497;47.410;9.740;2024-02-16T00:07:20;1.33;;;1.23;;
4963;SDS011;2497;47.410;9.740;2024-02-16T00:09:47;1.73;;;1.63;;
4963;SDS011;2497;47.410;9.740;2024-02-16T00:12:16;1.73;;;0.90;;
4963;SDS011;2497;47.410;9.740;2024-02-16T00:14:43;3.43;;;1.87;;
4963;SDS011;2497;47.410;9.740;2024-02-16T00:17:11;5.03;;;2.30;;
4963;SDS011;2497;47.410;9.740;2024-02-16T00:19:38;3.90;;;1.43;;
4963;SDS011;2497;47.410;9.740;2024-02-16T00:22:05;2.37;;;1.33;;
4963;SDS011;2497;47.410;9.740;2024-02-16T00:24:33;1.47;;;1.17;;
4963;SDS011;2497;47.410;9.740;2024-02-16T00:27:01;2.43;;;1.33;;
4963;SDS011;2497;47.410;9.740;2024-02-16T00:29:30;2.10;;;1.57;;
4963;SDS011;2497;47.410;9.740;2024-02-16T00:31:57;1.40;;;1.30;;
4963;SDS011;2497;47.410;9.740;2024-02-16T00:34:25;4.80;;;2.63;;
4963;SDS011;2497;47.410;9.740;2024-02-16T00:36:52;1.67;;;1.57;;
4963;SDS011;2497;47.410;9.740;2024-02-16T00:39:19;3.80;;;2.73;;
4963;SDS011;2497;47.410;9.740;2024-02-16T00:41:47;2.43;;;1.50;;
4963;SDS011;2497;47.410;9.740;2024-02-16T00:44:17;2.60;;;1.70;;
4963;SDS011;2497;47.410;9.740;2024-02-16T00:46:46;2.10;;;1.43;;
4963;SDS011;2497;47.410;9.740;2024-02-16T00:49:13;3.33;;;3.00;;
4963;SDS011;2497;47.410;9.740;2024-02-16T00:51:40;1.90;;;1.47;;
4963;SDS011;2497;47.410;9.740;2024-02-16T00:54:07;1.93;;;1.83;;
4963;SDS011;2497;47.410;9.740;2024-02-16T00:56:34;2.23;;;2.03;;
4963;SDS011;2497;47.410;9.740;2024-02-16T00:59:04;2.70;;;2.50;;
4963;SDS011;2497;47.410;9.740;2024-02-16T01:01:34;3.97;;;1.90;;
4963;SDS011;2497;47.410;9.740;2024-02-16T01:04:02;2.60;;;2.40;;
4963;SDS011;2497;47.410;9.740;2024-02-16T01:06:29;4.70;;;2.53;;
4963;SDS011;2497;47.410;9.740;2024-02-16T01:08:56;2.63;;;2.40;;
4963;SDS011;2497;47.410;9.740;2024-02-16T01:11:23;4.20;;;3.03;;
4963;SDS011;2497;47.410;9.740;2024-02-16T01:13:50;2.50;;;2.30;;
4963;SDS011;2497;47.410;9.740;2024-02-16T01:16:18;8.87;;;4.50;;
4963;SDS011;2497;47.410;9.740;2024-02-16T01:18:45;3.70;;;1.83;;
4963;SDS011;2497;47.410;9.740;2024-02-16T01:21:13;2.03;;;1.40;;
4963;SDS011;2497;47.410;9.740;2024-02-16T01:23:40;3.47;;;2.20;;
4963;SDS011;2497;47.410;9.740;2024-02-16T01:26:07;2.80;;;2.47;;
4963;SDS011;2497;47.410;9.740;2024-02-16T01:28:34;4.90;;;2.27;;
4963;SDS011;2497;47.410;9.740;2024-02-16T01:31:01;3.80;;;2.33;;
4963;SDS011;2497;47.410;9.740;2024-02-16T01:33:28;4.20;;;2.00;;
4963;SDS011;2497;47.410;9.740;2024-02-16T01:35:58;3.17;;;2.03;;
4963;SDS011;2497;47.410;9.740;2024-02-16T01:38:26;3.90;;;1.67;;
4963;SDS011;2497;47.410;9.740;2024-02-16T01:40:53;3.90;;;1.57;;
4963;SDS011;2497;47.410;9.740;2024-02-16T01:43:20;1.93;;;1.83;;
4963;SDS011;2497;47.410;9.740;2024-02-16T01:45:48;2.80;;;2.27;;
4963;SDS011;2497;47.410;9.740;2024-02-16T01:48:15;1.77;;;1.60;;
4963;SDS011;2497;47.410;9.740;2024-02-16T01:50:42;1.87;;;1.67;;
4963;SDS011;2497;47.410;9.740;2024-02-16T01:53:11;1.60;;;1.20;;
4963;SDS011;2497;47.410;9.740;2024-02-16T01:55:39;1.30;;;1.20;;
4963;SDS011;2497;47.410;9.740;2024-02-16T01:58:07;1.10;;;1.00;;
4963;SDS011;2497;47.410;9.740;2024-02-16T02:00:34;1.80;;;1.57;;
4963;SDS011;2497;47.410;9.740;2024-02-16T02:03:01;1.20;;;1.10;;
4963;SDS011;2497;47.410;9.740;2024-02-16T02:05:28;1.47;;;1.23;;
4963;SDS011;2497;47.410;9.740;2024-02-16T02:07:55;1.30;;;1.20;;
4963;SDS011;2497;47.410;9.740;2024-02-16T02:10:22;1.40;;;1.00;;
4963;SDS011;2497;47.410;9.740;2024-02-16T02:12:51;0.90;;;0.80;;
4963;SDS011;2497;47.410;9.740;2024-02-16T02:15:18;1.33;;;1.10;;
4963;SDS011;2497;47.410;9.740;2024-02-16T02:17:45;1.60;;;1.10;;
4963;SDS011;2497;47.410;9.740;2024-02-16T02:20:12;0.90;;;0.80;;
4963;SDS011;2497;47.410;9.740;2024-02-16T02:22:41;1.23;;;1.13;;
4963;SDS011;2497;47.410;9.740;2024-02-16T02:25:08;2.33;;;1.33;;
4963;SDS011;2497;47.410;9.740;2024-02-16T02:27:36;1.13;;;1.03;;
4963;SDS011;2497;47.410;9.740;2024-02-16T02:30:03;3.10;;;2.23;;
4963;SDS011;2497;47.410;9.740;2024-02-16T02:32:31;1.23;;;1.10;;
4963;SDS011;2497;47.410;9.740;2024-02-16T02:34:59;1.10;;;0.97;;
4963;SDS011;2497;47.410;9.740;2024-02-16T02:37:27;1.67;;;1.30;;
4963;SDS011;2497;47.410;9.740;2024-02-16T02:39:55;1.30;;;1.20;;
4963;SDS011;2497;47.410;9.740;2024-02-16T02:42:23;1.00;;;0.83;;
4963;SDS011;2497;47.410;9.740;2024-02-16T02:44:50;1.57;;;1.20;;
4963;SDS011;2497;47.410;9.740;2024-02-16T02:47:19;1.90;;;1.67;;
4963;SDS011;2497;47.410;9.740;2024-02-16T02:49:47;1.00;;;0.80;;
4963;SDS011;2497;47.410;9.740;2024-02-16T02:52:14;0.90;;;0.70;;
4963;SDS011;2497;47.410;9.740;2024-02-16T02:54:42;3.90;;;1.10;;
4963;SDS011;2497;47.410;9.740;2024-02-16T02:57:10;1.10;;;1.00;;
4963;SDS011;2497;47.410;9.740;2024-02-16T02:59:37;3.43;;;1.90;;
4963;SDS011;2497;47.410;9.740;2024-02-16T03:02:04;1.00;;;0.90;;
4963;SDS011;2497;47.410;9.740;2024-02-16T03:04:31;0.90;;;0.77;;
4963;SDS011;2497;47.410;9.740;2024-02-16T03:06:58;1.50;;;1.40;;
4963;SDS011;2497;47.410;9.740;2024-02-16T03:09:25;2.63;;;1.43;;
4963;SDS011;2497;47.410;9.740;2024-02-16T03:11:53;2.27;;;1.30;;
4963;SDS011;2497;47.410;9.740;2024-02-16T03:14:21;2.17;;;1.97;;
4963;SDS011;2497;47.410;9.740;2024-02-16T03:16:48;4.90;;;1.40;;
4963;SDS011;2497;47.410;9.740;2024-02-16T03:19:15;1.77;;;1.43;;
4963;SDS011;2497;47.410;9.740;2024-02-16T03:21:42;1.53;;;1.20;;
4963;SDS011;2497;47.410;9.740;2024-02-16T03:24:09;1.00;;;0.90;;
4963;SDS011;2497;47.410;9.740;2024-02-16T03:26:36;1.43;;;1.33;;
4963;SDS011;2497;47.410;9.740;2024-02-16T03:29:03;2.77;;;1.73;;
4963;SDS011;2497;47.410;9.740;2024-02-16T03:31:31;1.63;;;1.53;;
4963;SDS011;2497;47.410;9.740;2024-02-16T03:33:59;2.50;;;1.87;;
4963;SDS011;2497;47.410;9.740;2024-02-16T03:36:25;4.47;;;2.60;;
4963;SDS011;2497;47.410;9.740;2024-02-16T03:38:52;1.33;;;1.17;;
4963;SDS011;2497;47.410;9.740;2024-02-16T03:41:20;1.17;;;1.00;;
4963;SDS011;2497;47.410;9.740;2024-02-16T03:43:48;8.37;;;1.33;;
4963;SDS011;2497;47.410;9.740;2024-02-16T03:46:15;0.90;;;0.70;;
4963;SDS011;2497;47.410;9.740;2024-02-16T03:48:44;1.60;;;0.97;;
4963;SDS011;2497;47.410;9.740;2024-02-16T03:51:11;1.00;;;0.80;;
4963;SDS011;2497;47.410;9.740;2024-02-16T03:53:38;2.40;;;1.83;;
4963;SDS011;2497;47.410;9.740;2024-02-16T03:56:05;1.30;;;1.07;;
4963;SDS011;2497;47.410;9.740;2024-02-16T03:58:33;2.43;;;1.30;;
4963;SDS011;2497;47.410;9.740;2024-02-16T04:00:59;2.80;;;2.07;;
4963;SDS011;2497;47.410;9.740;2024-02-16T04:03:27;1.60;;;1.50;;
4963;SDS011;2497;47.410;9.740;2024-02-16T04:05:55;1.07;;;0.97;;
4963;SDS011;2497;47.410;9.740;2024-02-16T04:08:24;1.67;;;1.50;;
4963;SDS011;2497;47.410;9.740;2024-02-16T04:10:51;1.73;;;1.40;;
4963;SDS011;2497;47.410;9.740;2024-02-16T04:13:18;3.97;;;3.40;;
4963;SDS011;2497;47.410;9.740;2024-02-16T04:15:45;1.20;;;1.00;;
4963;SDS011;2497;47.410;9.740;2024-02-16T04:18:12;2.13;;;1.63;;
4963;SDS011;2497;47.410;9.740;2024-02-16T04:20:43;1.93;;;1.20;;
4963;SDS011;2497;47.410;9.740;2024-02-16T04:23:12;1.30;;;1.13;;
4963;SDS011;2497;47.410;9.740;2024-02-16T04:25:39;3.30;;;1.70;;
4963;SDS011;2497;47.410;9.740;2024-02-16T04:28:06;5.00;;;2.70;;
4963;SDS011;2497;47.410;9.740;2024-02-16T04:30:34;1.60;;;1.03;;
4963;SDS011;2497;47.410;9.740;2024-02-16T04:33:02;2.40;;;1.20;;
4963;SDS011;2497;47.410;9.740;2024-02-16T04:35:29;1.57;;;1.37;;
4963;SDS011;2497;47.410;9.740;2024-02-16T04:37:56;1.20;;;1.00;;
4963;SDS011;2497;47.410;9.740;2024-02-16T04:40:25;20.63;;;1.47;;
4963;SDS011;2497;47.410;9.740;2024-02-16T04:42:52;2.50;;;1.50;;
4963;SDS011;2497;47.410;9.740;2024-02-16T04:45:22;4.30;;;3.00;;
4963;SDS011;2497;47.410;9.740;2024-02-16T04:47:49;1.30;;;1.20;;
4963;SDS011;2497;47.410;9.740;2024-02-16T04:50:16;4.00;;;1.70;;
4963;SDS011;2497;47.410;9.740;2024-02-16T04:52:43;3.50;;;2.53;;
4963;SDS011;2497;47.410;9.740;2024-02-16T04:55:10;2.37;;;2.17;;
4963;SDS011;2497;47.410;9.740;2024-02-16T04:57:39;3.90;;;2.00;;
4963;SDS011;2497;47.410;9.740;2024-02-16T05:00:07;5.33;;;3.27;;
4963;SDS011;2497;47.410;9.740;2024-02-16T05:02:35;2.90;;;2.40;;
4963;SDS011;2497;47.410;9.740;2024-02-16T05:05:02;5.60;;;3.23;;
4963;SDS011;2497;47.410;9.740;2024-02-16T05:07:30;4.53;;;2.40;;
4963;SDS011;2497;47.410;9.740;2024-02-16T05:09:57;4.07;;;2.20;;
4963;SDS011;2497;47.410;9.740;2024-02-16T05:12:46;5.80;;;3.07;;
4963;SDS011;2497;47.410;9.740;2024-02-16T05:15:13;2.80;;;2.30;;
4963;SDS011;2497;47.410;9.740;2024-02-16T05:17:40;4.37;;;3.00;;
4963;SDS011;2497;47.410;9.740;2024-02-16T05:20:09;2.33;;;2.00;;
4963;SDS011;2497;47.410;9.740;2024-02-16T05:22:40;2.70;;;1.57;;
4963;SDS011;2497;47.410;9.740;2024-02-16T05:25:08;1.87;;;1.77;;
4963;SDS011;2497;47.410;9.740;2024-02-16T05:27:36;1.50;;;1.13;;
4963;SDS011;2497;47.410;9.740;2024-02-16T05:30:06;10.03;;;6.30;;
4963;SDS011;2497;47.410;9.740;2024-02-16T05:32:35;5.63;;;3.30;;
4963;SDS011;2497;47.410;9.740;2024-02-16T05:35:02;5.20;;;3.33;;
4963;SDS011;2497;47.410;9.740;2024-02-16T05:37:36;4.77;;;3.83;;
4963;SDS011;2497;47.410;9.740;2024-02-16T05:40:07;28.13;;;4.93;;
4963;SDS011;2497;47.410;9.740;2024-02-16T05:42:45;3.20;;;1.90;;
4963;SDS011;2497;47.410;9.740;2024-02-16T05:45:14;3.10;;;1.60;;
4963;SDS011;2497;47.410;9.740;2024-02-16T05:47:41;5.37;;;2.30;;
4963;SDS011;2497;47.410;9.740;2024-02-16T05:50:10;7.63;;;3.93;;
4963;SDS011;2497;47.410;9.740;2024-02-16T05:52:38;3.93;;;3.27;;
4963;SDS011;2497;47.410;9.740;2024-02-16T05:55:06;2.00;;;1.80;;
4963;SDS011;2497;47.410;9.740;2024-02-16T05:57:34;3.50;;;2.30;;
4963;SDS011;2497;47.410;9.740;2024-02-16T06:00:00;3.80;;;2.00;;
4963;SDS011;2497;47.410;9.740;2024-02-16T06:02:31;4.73;;;2.07;;
4963;SDS011;2497;47.410;9.740;2024-02-16T06:04:58;12.73;;;3.87;;
4963;SDS011;2497;47.410;9.740;2024-02-16T06:07:25;2.40;;;2.20;;
4963;SDS011;2497;47.410;9.740;2024-02-16T06:09:54;2.80;;;2.00;;
4963;SDS011;2497;47.410;9.740;2024-02-16T06:12:22;4.73;;;1.97;;
4963;SDS011;2497;47.410;9.740;2024-02-16T06:14:49;4.43;;;2.40;;
4963;SDS011;2497;47.410;9.740;2024-02-16T06:17:18;3.20;;;2.30;;
4963;SDS011;2497;47.410;9.740;2024-02-16T06:19:47;3.10;;;2.00;;
4963;SDS011;2497;47.410;9.740;2024-02-16T06:22:14;3.47;;;3.17;;
4963;SDS011;2497;47.410;9.740;2024-02-16T06:24:41;2.43;;;2.23;;
4963;SDS011;2497;47.410;9.740;2024-02-16T06:27:09;4.00;;;3.00;;
4963;SDS011;2497;47.410;9.740;2024-02-16T06:29:36;3.63;;;2.10;;
4963;SDS011;2497;47.410;9.740;2024-02-16T06:32:04;3.17;;;2.43;;
4963;SDS011;2497;47.410;9.740;2024-02-16T06:34:31;3.10;;;2.50;;
4963;SDS011;2497;47.410;9.740;2024-02-16T06:36:59;4.97;;;2.43;;
4963;SDS011;2497;47.410;9.740;2024-02-16T06:39:26;1.70;;;1.60;;
4963;SDS011;2497;47.410;9.740;2024-02-16T06:41:56;4.10;;;2.60;;
4963;SDS011;2497;47.410;9.740;2024-02-16T06:44:23;3.60;;;1.80;;
4963;SDS011;2497;47.410;9.740;2024-02-16T06:46:50;4.63;;;2.97;;
4963;SDS011;2497;47.410;9.740;2024-02-16T06:49:17;4.13;;;3.30;;
4963;SDS011;2497;47.410;9.740;2024-02-16T06:51:44;4.73;;;2.83;;
4963;SDS011;2497;47.410;9.740;2024-02-16T06:54:12;2.87;;;2.63;;
4963;SDS011;2497;47.410;9.740;2024-02-16T06:56:39;4.40;;;2.17;;
4963;SDS011;2497;47.410;9.740;2024-02-16T06:59:07;5.07;;;2.40;;
4963;SDS011;2497;47.410;9.740;2024-02-16T07:01:34;3.93;;;2.43;;
4963;SDS011;2497;47.410;9.740;2024-02-16T07:04:01;2.13;;;1.93;;
4963;SDS011;2497;47.410;9.740;2024-02-16T07:06:28;2.17;;;1.93;;
4963;SDS011;2497;47.410;9.740;2024-02-16T07:08:55;1.37;;;1.23;;
4963;SDS011;2497;47.410;9.740;2024-02-16T07:11:24;2.03;;;1.50;;
4963;SDS011;2497;47.410;9.740;2024-02-16T07:13:51;2.00;;;1.67;;
4963;SDS011;2497;47.410;9.740;2024-02-16T07:16:18;0.93;;;0.83;;
4963;SDS011;2497;47.410;9.740;2024-02-16T07:18:45;4.13;;;1.30;;
4963;SDS011;2497;47.410;9.740;2024-02-16T07:21:12;8.13;;;3.03;;
4963;SDS011;2497;47.410;9.740;2024-02-16T07:23:39;4.27;;;3.83;;
4963;SDS011;2497;47.410;9.740;2024-02-16T07:26:06;25.43;;;4.07;;
4963;SDS011;2497;47.410;9.740;2024-02-16T07:28:35;8.50;;;2.87;;
4963;SDS011;2497;47.410;9.740;2024-02-16T07:31:02;4.60;;;3.03;;
4963;SDS011;2497;47.410;9.740;2024-02-16T07:33:29;3.93;;;2.67;;
4963;SDS011;2497;47.410;9.740;2024-02-16T07:35:56;4.17;;;3.17;;
4963;SDS011;2497;47.410;9.740;2024-02-16T07:38:23;5.90;;;4.87;;
4963;SDS011;2497;47.410;9.740;2024-02-16T07:40:52;7.70;;;3.30;;
4963;SDS011;2497;47.410;9.740;2024-02-16T07:43:19;5.23;;;3.20;;
4963;SDS011;2497;47.410;9.740;2024-02-16T07:45:48;3.10;;;2.70;;
4963;SDS011;2497;47.410;9.740;2024-02-16T07:48:15;5.47;;;4.40;;
4963;SDS011;2497;47.410;9.740;2024-02-16T07:50:42;3.50;;;2.80;;
4963;SDS011;2497;47.410;9.740;2024-02-16T07:53:09;6.20;;;5.03;;
4963;SDS011;2497;47.410;9.740;2024-02-16T07:55:37;5.67;;;3.87;;
4963;SDS011;2497;47.410;9.740;2024-02-16T07:58:04;8.20;;;3.80;;
4963;SDS011;2497;47.410;9.740;2024-02-16T08:00:32;9.13;;;3.07;;
4963;SDS011;2497;47.410;9.740;2024-02-16T08:03:01;4.60;;;4.13;;
4963;SDS011;2497;47.410;9.740;2024-02-16T08:05:28;3.90;;;2.33;;
4963;SDS011;2497;47.410;9.740;2024-02-16T08:07:55;3.90;;;3.03;;
4963;SDS011;2497;47.410;9.740;2024-02-16T08:10:23;4.50;;;3.50;;
4963;SDS011;2497;47.410;9.740;2024-02-16T08:12:51;8.33;;;5.67;;
4963;SDS011;2497;47.410;9.740;2024-02-16T08:15:18;7.80;;;5.40;;
4963;SDS011;2497;47.410;9.740;2024-02-16T08:17:48;8.17;;;4.43;;
4963;SDS011;2497;47.410;9.740;2024-02-16T08:20:17;15.33;;;5.77;;
4963;SDS011;2497;47.410;9.740;2024-02-16T08:22:45;7.67;;;3.80;;
4963;SDS011;2497;47.410;9.740;2024-02-16T08:25:13;13.60;;;5.60;;
4963;SDS011;2497;47.410;9.740;2024-02-16T08:27:40;6.30;;;3.30;;
4963;SDS011;2497;47.410;9.740;2024-02-16T08:30:07;3.77;;;3.37;;
4963;SDS011;2497;47.410;9.740;2024-02-16T08:32:35;8.10;;;4.53;;
4963;SDS011;2497;47.410;9.740;2024-02-16T08:35:02;13.83;;;5.30;;
4963;SDS011;2497;47.410;9.740;2024-02-16T08:37:31;6.93;;;4.47;;
4963;SDS011;2497;47.410;9.740;2024-02-16T08:39:58;8.53;;;4.40;;
4963;SDS011;2497;47.410;9.740;2024-02-16T08:42:25;24.33;;;4.90;;
4963;SDS011;2497;47.410;9.740;2024-02-16T08:44:52;4.70;;;3.67;;
4963;SDS011;2497;47.410;9.740;2024-02-16T08:47:19;6.20;;;3.97;;
4963;SDS011;2497;47.410;9.740;2024-02-16T08:49:47;8.77;;;4.30;;
4963;SDS011;2497;47.410;9.740;2024-02-16T08:52:14;6.53;;;3.90;;
4963;SDS011;2497;47.410;9.740;2024-02-16T08:54:43;11.40;;;4.43;;
4963;SDS011;2497;47.410;9.740;2024-02-16T08:57:10;3.10;;;2.80;;
4963;SDS011;2497;47.410;9.740;2024-02-16T08:59:37;4.47;;;3.23;;
4963;SDS011;2497;47.410;9.740;2024-02-16T09:02:04;5.50;;;4.43;;
4963;SDS011;2497;47.410;9.740;2024-02-16T09:04:32;4.97;;;2.83;;
4963;SDS011;2497;47.410;9.740;2024-02-16T09:06:59;2.83;;;2.50;;
4963;SDS011;2497;47.410;9.740;2024-02-16T09:09:26;4.80;;;2.10;;
4963;SDS011;2497;47.410;9.740;2024-02-16T09:11:55;3.13;;;2.73;;
4963;SDS011;2497;47.410;9.740;2024-02-16T09:14:22;3.20;;;2.37;;
4963;SDS011;2497;47.410;9.740;2024-02-16T09:16:49;7.90;;;2.30;;
4963;SDS011;2497;47.410;9.740;2024-02-16T09:19:17;2.80;;;2.60;;
4963;SDS011;2497;47.410;9.740;2024-02-16T09:21:45;3.20;;;2.37;;
4963;SDS011;2497;47.410;9.740;2024-02-16T09:24:12;3.87;;;2.43;;
4963;SDS011;2497;47.410;9.740;2024-02-16T09:26:43;3.40;;;2.80;;
4963;SDS011;2497;47.410;9.740;2024-02-16T09:29:12;2.30;;;2.10;;
4963;SDS011;2497;47.410;9.740;2024-02-16T09:31:40;4.33;;;2.77;;
4963;SDS011;2497;47.410;9.740;2024-02-16T09:34:07;7.53;;;2.80;;
4963;SDS011;2497;47.410;9.740;2024-02-16T09:36:34;2.90;;;2.53;;
4963;SDS011;2497;47.410;9.740;2024-02-16T09:39:02;2.57;;;2.00;;
4963;SDS011;2497;47.410;9.740;2024-02-16T09:41:33;3.23;;;3.03;;
4963;SDS011;2497;47.410;9.740;2024-02-16T09:44:01;1.70;;;1.50;;
4963;SDS011;2497;47.410;9.740;2024-02-16T09:46:31;2.43;;;1.97;;
4963;SDS011;2497;47.410;9.740;2024-02-16T09:48:59;3.67;;;1.40;;
4963;SDS011;2497;47.410;9.740;2024-02-16T09:51:29;3.63;;;2.10;;
4963;SDS011;2497;47.410;9.740;2024-02-16T09:53:56;2.60;;;2.30;;
4963;SDS011;2497;47.410;9.740;2024-02-16T09:56:25;10.50;;;2.83;;
4963;SDS011;2497;47.410;9.740;2024-02-16T09:58:52;2.57;;;2.33;;
4963;SDS011;2497;47.410;9.740;2024-02-16T10:01:20;5.43;;;2.03;;
4963;SDS011;2497;47.410;9.740;2024-02-16T10:03:49;2.57;;;2.33;;
4963;SDS011;2497;47.410;9.740;2024-02-16T10:06:19;1.63;;;1.53;;
4963;SDS011;2497;47.410;9.740;2024-02-16T10:08:47;8.23;;;2.43;;
4963;SDS011;2497;47.410;9.740;2024-02-16T10:11:15;3.60;;;2.00;;
4963;SDS011;2497;47.410;9.740;2024-02-16T10:13:53;4.27;;;2.63;;
4963;SDS011;2497;47.410;9.740;2024-02-16T10:16:21;5.37;;;2.43;;
4963;SDS011;2497;47.410;9.740;2024-02-16T10:18:49;3.53;;;2.17;;
4963;SDS011;2497;47.410;9.740;2024-02-16T10:21:23;3.10;;;1.93;;
4963;SDS011;2497;47.410;9.740;2024-02-16T10:23:59;4.77;;;3.47;;
4963;SDS011;2497;47.410;9.740;2024-02-16T10:26:30;2.73;;;2.27;;
4963;SDS011;2497;47.410;9.740;2024-02-16T10:28:57;13.60;;;3.97;;
4963;SDS011;2497;47.410;9.740;2024-02-16T10:31:25;3.00;;;2.40;;
4963;SDS011;2497;47.410;9.740;2024-02-16T10:33:58;5.07;;;2.67;;
4963;SDS011;2497;47.410;9.740;2024-02-16T10:36:27;2.87;;;2.20;;
4963;SDS011;2497;47.410;9.740;2024-02-16T10:38:54;3.37;;;2.67;;
4963;SDS011;2497;47.410;9.740;2024-02-16T10:41:25;2.90;;;2.20;;
4963;SDS011;2497;47.410;9.740;2024-02-16T10:43:54;2.53;;;2.00;;
4963;SDS011;2497;47.410;9.740;2024-02-16T10:46:22;7.50;;;3.17;;
4963;SDS011;2497;47.410;9.740;2024-02-16T10:48:49;11.87;;;2.10;;
4963;SDS011;2497;47.410;9.740;2024-02-16T10:51:20;4.70;;;2.40;;
4963;SDS011;2497;47.410;9.740;2024-02-16T10:53:51;3.03;;;2.20;;
4963;SDS011;2497;47.410;9.740;2024-02-16T10:59:02;2.57;;;2.03;;
4963;SDS011;2497;47.410;9.740;2024-02-16T11:01:37;2.27;;;1.47;;
4963;SDS011;2497;47.410;9.740;2024-02-16T11:04:04;2.43;;;2.23;;
4963;SDS011;2497;47.410;9.740;2024-02-16T11:06:45;1.83;;;1.57;;
4963;SDS011;2497;47.410;9.740;2024-02-16T11:09:22;3.63;;;2.03;;
4963;SDS011;2497;47.410;9.740;2024-02-16T11:11:52;2.13;;;1.93;;
4963;SDS011;2497;47.410;9.740;2024-02-16T11:14:21;3.53;;;2.63;;
4963;SDS011;2497;47.410;9.740;2024-02-16T11:16:49;2.90;;;2.07;;
4963;SDS011;2497;47.410;9.740;2024-02-16T11:19:21;3.20;;;1.57;;
4963;SDS011;2497;47.410;9.740;2024-02-16T11:21:57;5.07;;;2.40;;
4963;SDS011;2497;47.410;9.740;2024-02-16T11:24:31;3.23;;;2.43;;
4963;SDS011;2497;47.410;9.740;2024-02-16T11:27:00;6.53;;;1.60;;
4963;SDS011;2497;47.410;9.740;2024-02-16T11:29:32;2.47;;;1.67;;
4963;SDS011;2497;47.410;9.740;2024-02-16T11:32:00;2.63;;;2.23;;
4963;SDS011;2497;47.410;9.740;2024-02-16T11:34:28;5.27;;;2.03;;
4963;SDS011;2497;47.410;9.740;2024-02-16T11:36:57;4.37;;;2.40;;
4963;SDS011;2497;47.410;9.740;2024-02-16T11:39:25;1.83;;;1.60;;
4963;SDS011;2497;47.410;9.740;2024-02-16T11:42:01;2.33;;;1.70;;
4963;SDS011;2497;47.410;9.740;2024-02-16T11:44:29;2.17;;;1.97;;
4963;SDS011;2497;47.410;9.740;2024-02-16T11:46:58;2.20;;;1.40;;
4963;SDS011;2497;47.410;9.740;2024-02-16T11:49:26;4.00;;;2.17;;
4963;SDS011;2497;47.410;9.740;2024-02-16T11:51:54;4.90;;;1.23;;
4963;SDS011;2497;47.410;9.740;2024-02-16T11:54:22;2.07;;;1.53;;
4963;SDS011;2497;47.410;9.740;2024-02-16T11:56:49;1.83;;;1.43;;
4963;SDS011;2497;47.410;9.740;2024-02-16T11:59:18;3.43;;;1.90;;
4963;SDS011;2497;47.410;9.740;2024-02-16T12:01:49;1.87;;;1.53;;
4963;SDS011;2497;47.410;9.740;2024-02-16T12:04:21;3.40;;;1.50;;
4963;SDS011;2497;47.410;9.740;2024-02-16T12:06:52;2.83;;;1.50;;
4963;SDS011;2497;47.410;9.740;2024-02-16T12:09:23;1.50;;;1.33;;
4963;SDS011;2497;47.410;9.740;2024-02-16T12:11:50;1.97;;;1.47;;
4963;SDS011;2497;47.410;9.740;2024-02-16T12:14:19;1.63;;;1.33;;
4963;SDS011;2497;47.410;9.740;2024-02-16T12:16:47;3.23;;;1.70;;
4963;SDS011;2497;47.410;9.740;2024-02-16T12:19:15;1.60;;;1.30;;
4963;SDS011;2497;47.410;9.740;2024-02-16T12:21:42;2.07;;;1.13;;
4963;SDS011;2497;47.410;9.740;2024-02-16T12:24:09;5.10;;;2.00;;
4963;SDS011;2497;47.410;9.740;2024-02-16T12:26:38;8.53;;;1.80;;
4963;SDS011;2497;47.410;9.740;2024-02-16T12:29:06;2.60;;;2.07;;
4963;SDS011;2497;47.410;9.740;2024-02-16T12:31:33;7.50;;;2.17;;
4963;SDS011;2497;47.410;9.740;2024-02-16T12:34:03;2.27;;;1.30;;
4963;SDS011;2497;47.410;9.740;2024-02-16T12:36:31;1.60;;;1.20;;
4963;SDS011;2497;47.410;9.740;2024-02-16T12:38:59;1.93;;;1.47;;
4963;SDS011;2497;47.410;9.740;2024-02-16T12:41:28;2.07;;;1.60;;
4963;SDS011;2497;47.410;9.740;2024-02-16T12:43:57;1.70;;;1.60;;
4963;SDS011;2497;47.410;9.740;2024-02-16T12:46:24;1.23;;;1.13;;
4963;SDS011;2497;47.410;9.740;2024-02-16T12:48:53;3.60;;;2.10;;
4963;SDS011;2497;47.410;9.740;2024-02-16T12:51:20;2.70;;;1.87;;
4963;SDS011;2497;47.410;9.740;2024-02-16T12:53:47;2.97;;;1.90;;
4963;SDS011;2497;47.410;9.740;2024-02-16T12:56:14;4.40;;;2.30;;
4963;SDS011;2497;47.410;9.740;2024-02-16T12:58:41;1.73;;;1.60;;
4963;SDS011;2497;47.410;9.740;2024-02-16T13:01:12;4.00;;;1.67;;
4963;SDS011;2497;47.410;9.740;2024-02-16T13:03:39;1.50;;;1.40;;
4963;SDS011;2497;47.410;9.740;2024-02-16T13:06:08;2.23;;;1.30;;
4963;SDS011;2497;47.410;9.740;2024-02-16T13:08:35;6.40;;;2.07;;
4963;SDS011;2497;47.410;9.740;2024-02-16T13:11:02;1.63;;;1.40;;
4963;SDS011;2497;47.410;9.740;2024-02-16T13:13:32;2.77;;;1.90;;
4963;SDS011;2497;47.410;9.740;2024-02-16T13:16:00;4.23;;;1.40;;
4963;SDS011;2497;47.410;9.740;2024-02-16T13:18:28;5.17;;;1.80;;
4963;SDS011;2497;47.410;9.740;2024-02-16T13:20:55;5.13;;;2.10;;
4963;SDS011;2497;47.410;9.740;2024-02-16T13:23:23;2.33;;;2.00;;
4963;SDS011;2497;47.410;9.740;2024-02-16T13:25:50;3.90;;;2.20;;
4963;SDS011;2497;47.410;9.740;2024-02-16T13:28:17;1.50;;;1.10;;
4963;SDS011;2497;47.410;9.740;2024-02-16T13:30:44;2.00;;;1.70;;
4963;SDS011;2497;47.410;9.740;2024-02-16T13:33:11;3.20;;;2.10;;
4963;SDS011;2497;47.410;9.740;2024-02-16T13:35:40;4.03;;;1.93;;
4963;SDS011;2497;47.410;9.740;2024-02-16T13:38:07;2.37;;;1.33;;
4963;SDS011;2497;47.410;9.740;2024-02-16T13:40:34;2.77;;;1.60;;
4963;SDS011;2497;47.410;9.740;2024-02-16T13:43:01;2.53;;;1.63;;
4963;SDS011;2497;47.410;9.740;2024-02-16T13:45:29;2.17;;;1.87;;
4963;SDS011;2497;47.410;9.740;2024-02-16T13:48:16;1.73;;;1.57;;
4963;SDS011;2497;47.410;9.740;2024-02-16T13:50:45;3.67;;;2.03;;
4963;SDS011;2497;47.410;9.740;2024-02-16T13:53:13;3.10;;;1.70;;
4963;SDS011;2497;47.410;9.740;2024-02-16T13:55:40;5.97;;;3.07;;
4963;SDS011;2497;47.410;9.740;2024-02-16T13:58:08;6.10;;;1.53;;
4963;SDS011;2497;47.410;9.740;2024-02-16T14:00:36;3.57;;;1.77;;
4963;SDS011;2497;47.410;9.740;2024-02-16T14:03:03;2.00;;;1.80;;
4963;SDS011;2497;47.410;9.740;2024-02-16T14:05:33;2.23;;;2.03;;
4963;SDS011;2497;47.410;9.740;2024-02-16T14:08:02;15.43;;;2.00;;
4963;SDS011;2497;47.410;9.740;2024-02-16T14:10:30;4.37;;;2.03;;
4963;SDS011;2497;47.410;9.740;2024-02-16T14:12:57;2.57;;;1.53;;
4963;SDS011;2497;47.410;9.740;2024-02-16T14:15:24;2.57;;;1.60;;
4963;SDS011;2497;47.410;9.740;2024-02-16T14:17:51;2.80;;;2.27;;
4963;SDS011;2497;47.410;9.740;2024-02-16T14:20:19;6.10;;;1.70;;
4963;SDS011;2497;47.410;9.740;2024-02-16T14:22:46;2.10;;;1.73;;
4963;SDS011;2497;47.410;9.740;2024-02-16T14:25:15;2.50;;;2.07;;
4963;SDS011;2497;47.410;9.740;2024-02-16T14:27:44;3.10;;;1.40;;
4963;SDS011;2497;47.410;9.740;2024-02-16T14:30:11;1.30;;;1.20;;
4963;SDS011;2497;47.410;9.740;2024-02-16T14:32:39;2.63;;;1.50;;
4963;SDS011;2497;47.410;9.740;2024-02-16T14:35:07;2.00;;;1.80;;
4963;SDS011;2497;47.410;9.740;2024-02-16T14:37:34;2.90;;;2.20;;
4963;SDS011;2497;47.410;9.740;2024-02-16T14:40:02;3.30;;;1.90;;
4963;SDS011;2497;47.410;9.740;2024-02-16T14:42:32;1.77;;;1.33;;
4963;SDS011;2497;47.410;9.740;2024-02-16T14:44:59;2.33;;;1.20;;
4963;SDS011;2497;47.410;9.740;2024-02-16T14:47:28;5.23;;;2.10;;
4963;SDS011;2497;47.410;9.740;2024-02-16T14:49:55;5.00;;;1.60;;
4963;SDS011;2497;47.410;9.740;2024-02-16T14:52:22;4.03;;;1.60;;
4963;SDS011;2497;47.410;9.740;2024-02-16T14:54:49;4.23;;;2.23;;
4963;SDS011;2497;47.410;9.740;2024-02-16T14:57:16;2.60;;;1.97;;
4963;SDS011;2497;47.410;9.740;2024-02-16T14:59:47;1.17;;;1.07;;
4963;SDS011;2497;47.410;9.740;2024-02-16T15:02:14;3.07;;;2.00;;
4963;SDS011;2497;47.410;9.740;2024-02-16T15:04:41;5.03;;;1.50;;
4963;SDS011;2497;47.410;9.740;2024-02-16T15:07:08;1.43;;;1.20;;
4963;SDS011;2497;47.410;9.740;2024-02-16T15:09:36;3.67;;;1.50;;
4963;SDS011;2497;47.410;9.740;2024-02-16T15:12:03;2.97;;;1.87;;
4963;SDS011;2497;47.410;9.740;2024-02-16T15:14:32;2.30;;;2.07;;
4963;SDS011;2497;47.410;9.740;2024-02-16T15:17:00;2.80;;;1.37;;
4963;SDS011;2497;47.410;9.740;2024-02-16T15:19:28;3.73;;;2.17;;
4963;SDS011;2497;47.410;9.740;2024-02-16T15:21:55;4.00;;;2.40;;
4963;SDS011;2497;47.410;9.740;2024-02-16T15:24:22;2.83;;;2.20;;